sensor_id;sensor_type;location;lat;lon;timestamp;P1;durP1;ratioP1;P2;durP2;ratioP2
3941;SDS011;1985;48.592;8.850;2022-10-16T00:01:36;8.40;;;1.70;;
3941;SDS011;1985;48.592;8.850;2022-10-16T00:04:02;9.70;;;1.42;;
3941;SDS011;1985;48.592;8.850;2022-10-16T00:06:28;8.52;;;1.48;;
3941;SDS011;1985;48.592;8.850;2022-10-16T00:08:54;10.80;;;1.50;;
3941;SDS011;1985;48.592;8.850;2022-10-16T00:11:21;9.00;;;1.60;;
3941;SDS011;1985;48.592;8.850;2022-10-16T00:13:49;12.48;;;1.42;;
3941;SDS011;1985;48.592;8.850;2022-10-16T00:16:17;8.90;;;1.60;;
3941;SDS011;1985;48.592;8.850;2022-10-16T00:18:43;8.48;;;1.70;;
3941;SDS011;1985;48.592;8.850;2022-10-16T00:21:10;7.90;;;1.20;;
3941;SDS011;1985;48.592;8.850;2022-10-16T00:23:42;8.30;;;1.50;;
3941;SDS011;1985;48.592;8.850;2022-10-16T00:26:10;8.40;;;1.60;;
3941;SDS011;1985;48.592;8.850;2022-10-16T00:28:40;9.67;;;1.80;;
3941;SDS011;1985;48.592;8.850;2022-10-16T00:31:06;8.02;;;1.40;;
3941;SDS011;1985;48.592;8.850;2022-10-16T00:33:34;8.93;;;1.80;;
3941;SDS011;1985;48.592;8.850;2022-10-16T00:36:01;8.15;;;1.30;;
3941;SDS011;1985;48.592;8.850;2022-10-16T00:38:28;8.27;;;1.40;;
3941;SDS011;1985;48.592;8.850;2022-10-16T00:40:54;8.70;;;1.50;;
3941;SDS011;1985;48.592;8.850;2022-10-16T00:46:10;8.55;;;1.48;;
3941;SDS011;1985;48.592;8.850;2022-10-16T00:48:47;8.80;;;1.98;;
3941;SDS011;1985;48.592;8.850;2022-10-16T00:51:19;8.40;;;1.27;;
3941;SDS011;1985;48.592;8.850;2022-10-16T00:53:49;7.87;;;1.20;;
3941;SDS011;1985;48.592;8.850;2022-10-16T00:56:15;8.05;;;1.38;;
3941;SDS011;1985;48.592;8.850;2022-10-16T00:58:41;8.20;;;1.40;;
3941;SDS011;1985;48.592;8.850;2022-10-16T01:01:06;8.43;;;1.30;;
3941;SDS011;1985;48.592;8.850;2022-10-16T01:03:33;8.00;;;1.20;;
3941;SDS011;1985;48.592;8.850;2022-10-16T01:08:46;11.90;;;1.80;;
3941;SDS011;1985;48.592;8.850;2022-10-16T01:11:34;7.80;;;1.20;;
3941;SDS011;1985;48.592;8.850;2022-10-16T01:14:08;8.25;;;1.30;;
3941;SDS011;1985;48.592;8.850;2022-10-16T01:16:59;10.75;;;1.50;;
3941;SDS011;1985;48.592;8.850;2022-10-16T01:22:16;7.78;;;1.10;;
3941;SDS011;1985;48.592;8.850;2022-10-16T01:24:44;7.80;;;1.20;;
3941;SDS011;1985;48.592;8.850;2022-10-16T01:27:14;8.15;;;1.30;;
3941;SDS011;1985;48.592;8.850;2022-10-16T01:29:54;7.80;;;1.10;;
3941;SDS011;1985;48.592;8.850;2022-10-16T01:40:09;9.20;;;1.50;;
3941;SDS011;1985;48.592;8.850;2022-10-16T01:42:41;8.50;;;1.20;;
3941;SDS011;1985;48.592;8.850;2022-10-16T01:45:12;8.00;;;1.30;;
3941;SDS011;1985;48.592;8.850;2022-10-16T01:47:42;7.70;;;1.15;;
3941;SDS011;1985;48.592;8.850;2022-10-16T01:50:09;7.90;;;1.17;;
3941;SDS011;1985;48.592;8.850;2022-10-16T01:52:37;8.15;;;1.40;;
3941;SDS011;1985;48.592;8.850;2022-10-16T01:55:07;9.00;;;1.70;;
3941;SDS011;1985;48.592;8.850;2022-10-16T01:57:36;9.32;;;1.50;;
3941;SDS011;1985;48.592;8.850;2022-10-16T02:00:07;8.63;;;1.60;;
3941;SDS011;1985;48.592;8.850;2022-10-16T02:02:36;8.00;;;1.25;;
3941;SDS011;1985;48.592;8.850;2022-10-16T02:05:09;8.07;;;1.20;;
3941;SDS011;1985;48.592;8.850;2022-10-16T02:07:38;8.27;;;1.35;;
3941;SDS011;1985;48.592;8.850;2022-10-16T02:10:07;9.50;;;1.60;;
3941;SDS011;1985;48.592;8.850;2022-10-16T02:12:33;8.38;;;1.30;;
3941;SDS011;1985;48.592;8.850;2022-10-16T02:15:04;8.30;;;1.30;;
3941;SDS011;1985;48.592;8.850;2022-10-16T02:17:30;7.90;;;1.35;;
3941;SDS011;1985;48.592;8.850;2022-10-16T02:19:56;9.27;;;1.35;;
3941;SDS011;1985;48.592;8.850;2022-10-16T02:25:02;7.93;;;1.30;;
3941;SDS011;1985;48.592;8.850;2022-10-16T02:27:38;8.65;;;1.40;;
3941;SDS011;1985;48.592;8.850;2022-10-16T02:32:44;8.10;;;1.35;;
3941;SDS011;1985;48.592;8.850;2022-10-16T02:35:12;8.30;;;1.23;;
3941;SDS011;1985;48.592;8.850;2022-10-16T02:37:40;10.07;;;1.38;;
3941;SDS011;1985;48.592;8.850;2022-10-16T02:40:07;8.90;;;1.80;;
3941;SDS011;1985;48.592;8.850;2022-10-16T02:42:35;7.80;;;1.20;;
3941;SDS011;1985;48.592;8.850;2022-10-16T02:45:02;8.20;;;1.30;;
3941;SDS011;1985;48.592;8.850;2022-10-16T02:47:28;8.00;;;1.25;;
3941;SDS011;1985;48.592;8.850;2022-10-16T02:49:54;9.00;;;1.60;;
3941;SDS011;1985;48.592;8.850;2022-10-16T02:52:20;8.20;;;1.33;;
3941;SDS011;1985;48.592;8.850;2022-10-16T02:54:45;13.60;;;1.60;;
3941;SDS011;1985;48.592;8.850;2022-10-16T02:57:11;10.30;;;1.80;;
3941;SDS011;1985;48.592;8.850;2022-10-16T02:59:37;8.70;;;1.60;;
3941;SDS011;1985;48.592;8.850;2022-10-16T03:02:02;8.40;;;1.35;;
3941;SDS011;1985;48.592;8.850;2022-10-16T03:04:28;8.30;;;1.40;;
3941;SDS011;1985;48.592;8.850;2022-10-16T03:06:53;8.80;;;1.60;;
3941;SDS011;1985;48.592;8.850;2022-10-16T03:09:19;10.20;;;1.70;;
3941;SDS011;1985;48.592;8.850;2022-10-16T03:11:45;8.57;;;1.60;;
3941;SDS011;1985;48.592;8.850;2022-10-16T03:14:10;8.50;;;1.70;;
3941;SDS011;1985;48.592;8.850;2022-10-16T03:16:36;9.10;;;1.60;;
3941;SDS011;1985;48.592;8.850;2022-10-16T03:19:01;7.93;;;1.33;;
3941;SDS011;1985;48.592;8.850;2022-10-16T03:21:27;9.13;;;1.50;;
3941;SDS011;1985;48.592;8.850;2022-10-16T03:23:53;8.13;;;1.35;;
3941;SDS011;1985;48.592;8.850;2022-10-16T03:26:18;8.40;;;1.30;;
3941;SDS011;1985;48.592;8.850;2022-10-16T03:28:44;8.80;;;1.60;;
3941;SDS011;1985;48.592;8.850;2022-10-16T03:31:09;8.65;;;1.60;;
3941;SDS011;1985;48.592;8.850;2022-10-16T03:33:35;8.80;;;1.70;;
3941;SDS011;1985;48.592;8.850;2022-10-16T03:36:01;9.33;;;1.70;;
3941;SDS011;1985;48.592;8.850;2022-10-16T03:38:26;8.20;;;1.27;;
3941;SDS011;1985;48.592;8.850;2022-10-16T03:40:52;8.27;;;1.60;;
3941;SDS011;1985;48.592;8.850;2022-10-16T03:43:18;8.10;;;1.40;;
3941;SDS011;1985;48.592;8.850;2022-10-16T03:45:44;8.10;;;1.40;;
3941;SDS011;1985;48.592;8.850;2022-10-16T03:48:09;7.90;;;1.20;;
3941;SDS011;1985;48.592;8.850;2022-10-16T03:50:35;8.40;;;1.30;;
3941;SDS011;1985;48.592;8.850;2022-10-16T03:53:01;9.50;;;1.80;;
3941;SDS011;1985;48.592;8.850;2022-10-16T03:55:26;8.20;;;1.40;;
3941;SDS011;1985;48.592;8.850;2022-10-16T03:57:52;8.32;;;1.40;;
3941;SDS011;1985;48.592;8.850;2022-10-16T04:00:18;8.30;;;1.40;;
3941;SDS011;1985;48.592;8.850;2022-10-16T04:02:44;8.40;;;1.40;;
3941;SDS011;1985;48.592;8.850;2022-10-16T04:05:09;8.10;;;1.45;;
3941;SDS011;1985;48.592;8.850;2022-10-16T04:07:35;8.00;;;1.30;;
3941;SDS011;1985;48.592;8.850;2022-10-16T04:10:01;8.60;;;1.30;;
3941;SDS011;1985;48.592;8.850;2022-10-16T04:12:27;10.40;;;1.60;;
3941;SDS011;1985;48.592;8.850;2022-10-16T04:14:53;15.18;;;1.50;;
3941;SDS011;1985;48.592;8.850;2022-10-16T04:17:18;8.00;;;1.30;;
3941;SDS011;1985;48.592;8.850;2022-10-16T04:19:44;8.20;;;1.30;;
3941;SDS011;1985;48.592;8.850;2022-10-16T04:22:11;8.40;;;1.50;;
3941;SDS011;1985;48.592;8.850;2022-10-16T04:24:36;8.43;;;1.70;;
3941;SDS011;1985;48.592;8.850;2022-10-16T04:27:02;9.57;;;1.90;;
3941;SDS011;1985;48.592;8.850;2022-10-16T04:29:28;8.00;;;1.30;;
3941;SDS011;1985;48.592;8.850;2022-10-16T04:31:53;9.50;;;1.60;;
3941;SDS011;1985;48.592;8.850;2022-10-16T04:34:19;10.52;;;1.80;;
3941;SDS011;1985;48.592;8.850;2022-10-16T04:36:46;8.83;;;1.50;;
3941;SDS011;1985;48.592;8.850;2022-10-16T04:39:13;8.43;;;1.67;;
3941;SDS011;1985;48.592;8.850;2022-10-16T04:41:39;8.02;;;1.27;;
3941;SDS011;1985;48.592;8.850;2022-10-16T04:44:04;8.10;;;1.30;;
3941;SDS011;1985;48.592;8.850;2022-10-16T04:46:30;8.40;;;1.80;;
3941;SDS011;1985;48.592;8.850;2022-10-16T04:48:55;8.38;;;1.55;;
3941;SDS011;1985;48.592;8.850;2022-10-16T04:51:21;9.60;;;1.70;;
3941;SDS011;1985;48.592;8.850;2022-10-16T04:53:47;9.70;;;1.60;;
3941;SDS011;1985;48.592;8.850;2022-10-16T04:56:12;8.27;;;1.60;;
3941;SDS011;1985;48.592;8.850;2022-10-16T04:58:39;9.73;;;1.70;;
3941;SDS011;1985;48.592;8.850;2022-10-16T05:01:05;9.00;;;1.50;;
3941;SDS011;1985;48.592;8.850;2022-10-16T05:03:30;8.05;;;1.35;;
3941;SDS011;1985;48.592;8.850;2022-10-16T05:05:56;9.77;;;1.70;;
3941;SDS011;1985;48.592;8.850;2022-10-16T05:08:22;8.23;;;1.37;;
3941;SDS011;1985;48.592;8.850;2022-10-16T05:10:47;8.55;;;1.60;;
3941;SDS011;1985;48.592;8.850;2022-10-16T05:13:13;8.30;;;1.33;;
3941;SDS011;1985;48.592;8.850;2022-10-16T05:15:38;8.23;;;1.40;;
3941;SDS011;1985;48.592;8.850;2022-10-16T05:18:04;8.43;;;1.50;;
3941;SDS011;1985;48.592;8.850;2022-10-16T05:20:30;8.40;;;1.63;;
3941;SDS011;1985;48.592;8.850;2022-10-16T05:22:55;8.43;;;1.50;;
3941;SDS011;1985;48.592;8.850;2022-10-16T05:25:21;8.30;;;1.30;;
3941;SDS011;1985;48.592;8.850;2022-10-16T05:27:47;8.68;;;1.63;;
3941;SDS011;1985;48.592;8.850;2022-10-16T05:30:13;8.20;;;1.38;;
3941;SDS011;1985;48.592;8.850;2022-10-16T05:32:39;14.15;;;2.47;;
3941;SDS011;1985;48.592;8.850;2022-10-16T05:35:05;8.80;;;1.70;;
3941;SDS011;1985;48.592;8.850;2022-10-16T05:37:31;8.27;;;1.50;;
3941;SDS011;1985;48.592;8.850;2022-10-16T05:39:56;8.90;;;1.80;;
3941;SDS011;1985;48.592;8.850;2022-10-16T05:42:22;8.73;;;1.77;;
3941;SDS011;1985;48.592;8.850;2022-10-16T05:44:48;8.60;;;1.30;;
3941;SDS011;1985;48.592;8.850;2022-10-16T05:47:13;7.80;;;1.30;;
3941;SDS011;1985;48.592;8.850;2022-10-16T05:49:39;8.50;;;1.60;;
3941;SDS011;1985;48.592;8.850;2022-10-16T05:52:05;9.20;;;1.60;;
3941;SDS011;1985;48.592;8.850;2022-10-16T05:54:31;8.15;;;1.40;;
3941;SDS011;1985;48.592;8.850;2022-10-16T05:56:56;8.80;;;1.60;;
3941;SDS011;1985;48.592;8.850;2022-10-16T05:59:22;9.13;;;1.53;;
3941;SDS011;1985;48.592;8.850;2022-10-16T06:01:48;9.52;;;1.80;;
3941;SDS011;1985;48.592;8.850;2022-10-16T06:04:14;12.93;;;3.00;;
3941;SDS011;1985;48.592;8.850;2022-10-16T06:06:39;15.90;;;3.80;;
3941;SDS011;1985;48.592;8.850;2022-10-16T06:09:05;12.67;;;3.10;;
3941;SDS011;1985;48.592;8.850;2022-10-16T06:11:31;14.73;;;5.00;;
3941;SDS011;1985;48.592;8.850;2022-10-16T06:13:59;14.93;;;4.07;;
3941;SDS011;1985;48.592;8.850;2022-10-16T06:16:27;15.50;;;4.63;;
3941;SDS011;1985;48.592;8.850;2022-10-16T06:18:54;15.70;;;5.20;;
3941;SDS011;1985;48.592;8.850;2022-10-16T06:21:25;12.93;;;3.67;;
3941;SDS011;1985;48.592;8.850;2022-10-16T06:23:52;12.23;;;4.05;;
3941;SDS011;1985;48.592;8.850;2022-10-16T06:26:20;10.20;;;2.25;;
3941;SDS011;1985;48.592;8.850;2022-10-16T06:28:47;9.18;;;1.90;;
3941;SDS011;1985;48.592;8.850;2022-10-16T06:31:14;9.82;;;2.40;;
3941;SDS011;1985;48.592;8.850;2022-10-16T06:33:40;9.10;;;1.70;;
3941;SDS011;1985;48.592;8.850;2022-10-16T06:36:10;10.00;;;1.95;;
3941;SDS011;1985;48.592;8.850;2022-10-16T06:38:37;8.38;;;1.60;;
3941;SDS011;1985;48.592;8.850;2022-10-16T06:41:03;10.10;;;1.40;;
3941;SDS011;1985;48.592;8.850;2022-10-16T06:43:31;7.80;;;1.33;;
3941;SDS011;1985;48.592;8.850;2022-10-16T06:45:57;8.57;;;1.40;;
3941;SDS011;1985;48.592;8.850;2022-10-16T06:48:25;8.52;;;1.73;;
3941;SDS011;1985;48.592;8.850;2022-10-16T06:51:02;8.10;;;1.30;;
3941;SDS011;1985;48.592;8.850;2022-10-16T06:53:29;8.98;;;1.50;;
3941;SDS011;1985;48.592;8.850;2022-10-16T06:55:56;8.80;;;1.73;;
3941;SDS011;1985;48.592;8.850;2022-10-16T06:58:22;9.70;;;1.90;;
3941;SDS011;1985;48.592;8.850;2022-10-16T07:00:48;8.85;;;1.75;;
3941;SDS011;1985;48.592;8.850;2022-10-16T07:03:20;8.95;;;1.90;;
3941;SDS011;1985;48.592;8.850;2022-10-16T07:05:45;9.20;;;1.70;;
3941;SDS011;1985;48.592;8.850;2022-10-16T07:08:11;10.68;;;1.25;;
3941;SDS011;1985;48.592;8.850;2022-10-16T07:10:37;9.60;;;1.70;;
3941;SDS011;1985;48.592;8.850;2022-10-16T07:13:02;9.27;;;1.60;;
3941;SDS011;1985;48.592;8.850;2022-10-16T07:15:28;8.45;;;1.50;;
3941;SDS011;1985;48.592;8.850;2022-10-16T07:17:54;10.00;;;1.40;;
3941;SDS011;1985;48.592;8.850;2022-10-16T07:20:19;8.60;;;1.40;;
3941;SDS011;1985;48.592;8.850;2022-10-16T07:22:45;8.90;;;1.60;;
3941;SDS011;1985;48.592;8.850;2022-10-16T07:25:11;9.20;;;1.80;;
3941;SDS011;1985;48.592;8.850;2022-10-16T07:27:37;9.40;;;1.60;;
3941;SDS011;1985;48.592;8.850;2022-10-16T07:30:03;8.30;;;1.50;;
3941;SDS011;1985;48.592;8.850;2022-10-16T07:32:29;8.85;;;1.80;;
3941;SDS011;1985;48.592;8.850;2022-10-16T07:34:55;9.20;;;2.10;;
3941;SDS011;1985;48.592;8.850;2022-10-16T07:37:21;11.70;;;1.43;;
3941;SDS011;1985;48.592;8.850;2022-10-16T07:39:47;8.90;;;1.83;;
3941;SDS011;1985;48.592;8.850;2022-10-16T07:42:12;9.15;;;1.63;;
3941;SDS011;1985;48.592;8.850;2022-10-16T07:44:38;8.50;;;1.77;;
3941;SDS011;1985;48.592;8.850;2022-10-16T07:47:04;9.07;;;1.70;;
3941;SDS011;1985;48.592;8.850;2022-10-16T07:49:30;8.50;;;1.60;;
3941;SDS011;1985;48.592;8.850;2022-10-16T07:51:56;9.20;;;1.65;;
3941;SDS011;1985;48.592;8.850;2022-10-16T07:54:22;8.00;;;1.50;;
3941;SDS011;1985;48.592;8.850;2022-10-16T07:56:47;8.18;;;1.80;;
3941;SDS011;1985;48.592;8.850;2022-10-16T07:59:13;10.70;;;1.60;;
3941;SDS011;1985;48.592;8.850;2022-10-16T08:01:38;8.43;;;1.90;;
3941;SDS011;1985;48.592;8.850;2022-10-16T08:04:04;8.37;;;1.40;;
3941;SDS011;1985;48.592;8.850;2022-10-16T08:06:30;11.07;;;1.90;;
3941;SDS011;1985;48.592;8.850;2022-10-16T08:09:02;8.38;;;1.70;;
3941;SDS011;1985;48.592;8.850;2022-10-16T08:11:27;8.25;;;1.42;;
3941;SDS011;1985;48.592;8.850;2022-10-16T08:13:53;11.50;;;1.80;;
3941;SDS011;1985;48.592;8.850;2022-10-16T08:16:19;9.40;;;1.60;;
3941;SDS011;1985;48.592;8.850;2022-10-16T08:18:45;8.95;;;1.90;;
3941;SDS011;1985;48.592;8.850;2022-10-16T08:21:15;8.70;;;1.67;;
3941;SDS011;1985;48.592;8.850;2022-10-16T08:23:42;9.30;;;1.80;;
3941;SDS011;1985;48.592;8.850;2022-10-16T08:26:09;8.40;;;1.50;;
3941;SDS011;1985;48.592;8.850;2022-10-16T08:28:35;8.55;;;1.50;;
3941;SDS011;1985;48.592;8.850;2022-10-16T08:31:07;8.82;;;1.73;;
3941;SDS011;1985;48.592;8.850;2022-10-16T08:33:34;8.32;;;1.50;;
3941;SDS011;1985;48.592;8.850;2022-10-16T08:36:01;8.60;;;1.80;;
3941;SDS011;1985;48.592;8.850;2022-10-16T08:38:27;10.90;;;1.60;;
3941;SDS011;1985;48.592;8.850;2022-10-16T08:40:52;8.57;;;1.50;;
3941;SDS011;1985;48.592;8.850;2022-10-16T08:43:39;11.45;;;2.20;;
3941;SDS011;1985;48.592;8.850;2022-10-16T08:46:12;8.80;;;2.00;;
3941;SDS011;1985;48.592;8.850;2022-10-16T08:48:52;16.00;;;1.80;;
3941;SDS011;1985;48.592;8.850;2022-10-16T08:53:49;9.07;;;1.60;;
3941;SDS011;1985;48.592;8.850;2022-10-16T08:56:39;8.98;;;1.52;;
3941;SDS011;1985;48.592;8.850;2022-10-16T08:59:06;9.32;;;2.08;;
3941;SDS011;1985;48.592;8.850;2022-10-16T09:01:39;8.10;;;1.50;;
3941;SDS011;1985;48.592;8.850;2022-10-16T09:21:54;7.70;;;1.30;;
3941;SDS011;1985;48.592;8.850;2022-10-16T09:24:26;9.30;;;1.40;;
3941;SDS011;1985;48.592;8.850;2022-10-16T09:26:52;8.65;;;1.40;;
3941;SDS011;1985;48.592;8.850;2022-10-16T09:29:19;8.10;;;1.30;;
3941;SDS011;1985;48.592;8.850;2022-10-16T09:31:46;8.40;;;1.20;;
3941;SDS011;1985;48.592;8.850;2022-10-16T09:37:03;9.00;;;1.43;;
3941;SDS011;1985;48.592;8.850;2022-10-16T09:39:50;8.77;;;1.67;;
3941;SDS011;1985;48.592;8.850;2022-10-16T09:42:20;11.85;;;1.73;;
3941;SDS011;1985;48.592;8.850;2022-10-16T09:44:52;10.90;;;1.40;;
3941;SDS011;1985;48.592;8.850;2022-10-16T09:47:23;8.63;;;1.58;;
3941;SDS011;1985;48.592;8.850;2022-10-16T09:49:54;8.73;;;1.58;;
3941;SDS011;1985;48.592;8.850;2022-10-16T09:52:27;10.88;;;1.50;;
3941;SDS011;1985;48.592;8.850;2022-10-16T09:54:55;9.15;;;1.40;;
3941;SDS011;1985;48.592;8.850;2022-10-16T09:57:23;9.02;;;1.42;;
3941;SDS011;1985;48.592;8.850;2022-10-16T09:59:54;13.20;;;1.60;;
3941;SDS011;1985;48.592;8.850;2022-10-16T10:05:26;11.10;;;1.30;;
3941;SDS011;1985;48.592;8.850;2022-10-16T10:07:57;8.50;;;1.20;;
3941;SDS011;1985;48.592;8.850;2022-10-16T10:10:28;8.63;;;1.35;;
3941;SDS011;1985;48.592;8.850;2022-10-16T10:12:55;8.25;;;1.30;;
3941;SDS011;1985;48.592;8.850;2022-10-16T10:15:22;9.07;;;1.30;;
3941;SDS011;1985;48.592;8.850;2022-10-16T10:17:53;8.80;;;1.40;;
3941;SDS011;1985;48.592;8.850;2022-10-16T10:22:52;9.20;;;1.30;;
3941;SDS011;1985;48.592;8.850;2022-10-16T10:46:35;7.70;;;1.30;;
3941;SDS011;1985;48.592;8.850;2022-10-16T10:54:50;17.70;;;1.30;;
3941;SDS011;1985;48.592;8.850;2022-10-16T10:57:33;8.50;;;1.42;;
3941;SDS011;1985;48.592;8.850;2022-10-16T11:00:23;8.73;;;1.45;;
3941;SDS011;1985;48.592;8.850;2022-10-16T11:05:41;8.63;;;1.40;;
3941;SDS011;1985;48.592;8.850;2022-10-16T11:08:19;9.13;;;1.25;;
3941;SDS011;1985;48.592;8.850;2022-10-16T11:10:54;8.02;;;1.35;;
3941;SDS011;1985;48.592;8.850;2022-10-16T11:13:32;10.93;;;1.70;;
3941;SDS011;1985;48.592;8.850;2022-10-16T11:16:03;7.85;;;1.20;;
3941;SDS011;1985;48.592;8.850;2022-10-16T11:19:15;8.18;;;1.30;;
3941;SDS011;1985;48.592;8.850;2022-10-16T11:27:51;8.05;;;1.40;;
3941;SDS011;1985;48.592;8.850;2022-10-16T11:46:35;7.85;;;1.30;;
3941;SDS011;1985;48.592;8.850;2022-10-16T11:49:13;8.70;;;1.50;;
3941;SDS011;1985;48.592;8.850;2022-10-16T11:51:45;8.18;;;1.20;;
3941;SDS011;1985;48.592;8.850;2022-10-16T11:54:21;9.88;;;1.50;;
3941;SDS011;1985;48.592;8.850;2022-10-16T11:57:10;9.70;;;1.20;;
3941;SDS011;1985;48.592;8.850;2022-10-16T11:59:44;8.50;;;1.40;;
3941;SDS011;1985;48.592;8.850;2022-10-16T12:07:41;8.87;;;1.50;;
3941;SDS011;1985;48.592;8.850;2022-10-16T12:10:22;8.50;;;1.50;;
3941;SDS011;1985;48.592;8.850;2022-10-16T12:12:50;8.23;;;1.42;;
3941;SDS011;1985;48.592;8.850;2022-10-16T12:17:51;8.15;;;1.20;;
3941;SDS011;1985;48.592;8.850;2022-10-16T12:20:31;7.85;;;1.30;;
3941;SDS011;1985;48.592;8.850;2022-10-16T12:23:06;8.60;;;1.20;;
3941;SDS011;1985;48.592;8.850;2022-10-16T12:25:53;10.70;;;1.42;;
3941;SDS011;1985;48.592;8.850;2022-10-16T12:28:20;9.00;;;1.60;;
3941;SDS011;1985;48.592;8.850;2022-10-16T12:30:57;7.50;;;1.20;;
3941;SDS011;1985;48.592;8.850;2022-10-16T12:33:28;8.07;;;1.30;;
3941;SDS011;1985;48.592;8.850;2022-10-16T12:35:59;7.40;;;1.20;;
3941;SDS011;1985;48.592;8.850;2022-10-16T12:38:38;10.73;;;1.30;;
3941;SDS011;1985;48.592;8.850;2022-10-16T12:41:10;7.00;;;1.00;;
3941;SDS011;1985;48.592;8.850;2022-10-16T12:48:33;8.10;;;1.00;;
3941;SDS011;1985;48.592;8.850;2022-10-16T12:51:19;7.60;;;1.30;;
3941;SDS011;1985;48.592;8.850;2022-10-16T13:16:48;7.60;;;1.30;;
3941;SDS011;1985;48.592;8.850;2022-10-16T13:21:51;7.95;;;1.50;;
3941;SDS011;1985;48.592;8.850;2022-10-16T13:27:21;8.20;;;1.38;;
3941;SDS011;1985;48.592;8.850;2022-10-16T13:29:52;7.80;;;1.30;;
3941;SDS011;1985;48.592;8.850;2022-10-16T13:32:25;8.20;;;1.50;;
3941;SDS011;1985;48.592;8.850;2022-10-16T13:34:51;8.38;;;1.35;;
3941;SDS011;1985;48.592;8.850;2022-10-16T13:37:19;10.60;;;1.30;;
3941;SDS011;1985;48.592;8.850;2022-10-16T13:39:50;8.10;;;1.60;;
3941;SDS011;1985;48.592;8.850;2022-10-16T13:44:52;8.07;;;1.40;;
3941;SDS011;1985;48.592;8.850;2022-10-16T13:47:24;7.70;;;1.30;;
3941;SDS011;1985;48.592;8.850;2022-10-16T13:52:27;8.30;;;1.40;;
3941;SDS011;1985;48.592;8.850;2022-10-16T13:54:53;7.63;;;1.30;;
3941;SDS011;1985;48.592;8.850;2022-10-16T13:57:18;9.27;;;1.30;;
3941;SDS011;1985;48.592;8.850;2022-10-16T13:59:48;8.87;;;1.63;;
3941;SDS011;1985;48.592;8.850;2022-10-16T14:04:45;8.13;;;1.50;;
3941;SDS011;1985;48.592;8.850;2022-10-16T14:07:18;7.85;;;1.30;;
3941;SDS011;1985;48.592;8.850;2022-10-16T14:09:49;8.00;;;1.17;;
3941;SDS011;1985;48.592;8.850;2022-10-16T14:12:16;10.50;;;1.40;;
3941;SDS011;1985;48.592;8.850;2022-10-16T14:14:46;7.70;;;1.30;;
3941;SDS011;1985;48.592;8.850;2022-10-16T14:17:23;7.80;;;1.40;;
3941;SDS011;1985;48.592;8.850;2022-10-16T14:19:58;8.00;;;1.55;;
3941;SDS011;1985;48.592;8.850;2022-10-16T14:22:38;8.50;;;1.40;;
3941;SDS011;1985;48.592;8.850;2022-10-16T14:28:13;8.10;;;1.30;;
3941;SDS011;1985;48.592;8.850;2022-10-16T14:38:25;7.70;;;1.27;;
3941;SDS011;1985;48.592;8.850;2022-10-16T14:40:51;8.10;;;1.40;;
3941;SDS011;1985;48.592;8.850;2022-10-16T14:43:26;10.30;;;1.40;;
3941;SDS011;1985;48.592;8.850;2022-10-16T14:45:57;7.80;;;1.35;;
3941;SDS011;1985;48.592;8.850;2022-10-16T14:48:23;9.00;;;1.60;;
3941;SDS011;1985;48.592;8.850;2022-10-16T14:50:49;8.98;;;1.70;;
3941;SDS011;1985;48.592;8.850;2022-10-16T14:53:15;8.18;;;1.48;;
3941;SDS011;1985;48.592;8.850;2022-10-16T14:55:41;8.10;;;1.43;;
3941;SDS011;1985;48.592;8.850;2022-10-16T14:58:14;7.93;;;1.42;;
3941;SDS011;1985;48.592;8.850;2022-10-16T15:00:45;8.05;;;1.40;;
3941;SDS011;1985;48.592;8.850;2022-10-16T15:03:11;8.30;;;1.30;;
3941;SDS011;1985;48.592;8.850;2022-10-16T15:05:37;7.85;;;1.17;;
3941;SDS011;1985;48.592;8.850;2022-10-16T15:08:03;11.60;;;1.50;;
3941;SDS011;1985;48.592;8.850;2022-10-16T15:10:29;9.40;;;1.90;;
3941;SDS011;1985;48.592;8.850;2022-10-16T15:12:57;7.85;;;1.10;;
3941;SDS011;1985;48.592;8.850;2022-10-16T15:18:03;8.10;;;1.38;;
3941;SDS011;1985;48.592;8.850;2022-10-16T15:20:30;8.50;;;1.35;;
3941;SDS011;1985;48.592;8.850;2022-10-16T15:22:59;8.00;;;1.48;;
3941;SDS011;1985;48.592;8.850;2022-10-16T15:28:17;8.93;;;1.20;;
3941;SDS011;1985;48.592;8.850;2022-10-16T15:30:43;8.40;;;1.50;;
3941;SDS011;1985;48.592;8.850;2022-10-16T15:33:21;10.90;;;1.70;;
3941;SDS011;1985;48.592;8.850;2022-10-16T15:35:50;9.80;;;1.40;;
3941;SDS011;1985;48.592;8.850;2022-10-16T15:38:17;9.38;;;1.83;;
3941;SDS011;1985;48.592;8.850;2022-10-16T15:40:45;9.00;;;1.70;;
3941;SDS011;1985;48.592;8.850;2022-10-16T15:43:11;11.00;;;2.20;;
3941;SDS011;1985;48.592;8.850;2022-10-16T15:45:37;9.10;;;1.70;;
3941;SDS011;1985;48.592;8.850;2022-10-16T15:48:02;9.20;;;1.53;;
3941;SDS011;1985;48.592;8.850;2022-10-16T15:50:29;8.27;;;1.30;;
3941;SDS011;1985;48.592;8.850;2022-10-16T15:52:55;14.68;;;1.80;;
3941;SDS011;1985;48.592;8.850;2022-10-16T15:55:21;8.40;;;1.40;;
3941;SDS011;1985;48.592;8.850;2022-10-16T15:57:46;8.60;;;1.67;;
3941;SDS011;1985;48.592;8.850;2022-10-16T16:00:14;10.27;;;1.60;;
3941;SDS011;1985;48.592;8.850;2022-10-16T16:02:42;8.80;;;1.70;;
3941;SDS011;1985;48.592;8.850;2022-10-16T16:05:09;8.90;;;1.90;;
3941;SDS011;1985;48.592;8.850;2022-10-16T16:07:36;10.40;;;2.00;;
3941;SDS011;1985;48.592;8.850;2022-10-16T16:10:03;8.93;;;1.42;;
3941;SDS011;1985;48.592;8.850;2022-10-16T16:12:30;10.35;;;2.08;;
3941;SDS011;1985;48.592;8.850;2022-10-16T16:14:56;14.57;;;2.10;;
3941;SDS011;1985;48.592;8.850;2022-10-16T16:17:21;8.68;;;1.50;;
3941;SDS011;1985;48.592;8.850;2022-10-16T16:19:48;11.38;;;1.95;;
3941;SDS011;1985;48.592;8.850;2022-10-16T16:22:14;8.70;;;1.80;;
3941;SDS011;1985;48.592;8.850;2022-10-16T16:24:39;9.47;;;2.00;;
3941;SDS011;1985;48.592;8.850;2022-10-16T16:27:05;11.10;;;1.80;;
3941;SDS011;1985;48.592;8.850;2022-10-16T16:29:31;10.53;;;2.00;;
3941;SDS011;1985;48.592;8.850;2022-10-16T16:31:56;9.10;;;2.00;;
3941;SDS011;1985;48.592;8.850;2022-10-16T16:34:24;9.40;;;1.98;;
3941;SDS011;1985;48.592;8.850;2022-10-16T16:36:50;9.00;;;2.00;;
3941;SDS011;1985;48.592;8.850;2022-10-16T16:39:16;11.27;;;2.35;;
3941;SDS011;1985;48.592;8.850;2022-10-16T16:41:42;10.00;;;1.97;;
3941;SDS011;1985;48.592;8.850;2022-10-16T16:44:08;9.05;;;1.70;;
3941;SDS011;1985;48.592;8.850;2022-10-16T16:46:35;9.43;;;1.80;;
3941;SDS011;1985;48.592;8.850;2022-10-16T16:49:02;11.73;;;2.30;;
3941;SDS011;1985;48.592;8.850;2022-10-16T16:51:28;10.20;;;2.33;;
3941;SDS011;1985;48.592;8.850;2022-10-16T16:53:54;12.93;;;2.20;;
3941;SDS011;1985;48.592;8.850;2022-10-16T16:56:21;8.55;;;1.70;;
3941;SDS011;1985;48.592;8.850;2022-10-16T16:58:49;8.63;;;1.50;;
3941;SDS011;1985;48.592;8.850;2022-10-16T17:01:16;9.38;;;1.88;;
3941;SDS011;1985;48.592;8.850;2022-10-16T17:03:42;9.13;;;2.03;;
3941;SDS011;1985;48.592;8.850;2022-10-16T17:06:09;10.07;;;2.10;;
3941;SDS011;1985;48.592;8.850;2022-10-16T17:08:36;9.70;;;2.30;;
3941;SDS011;1985;48.592;8.850;2022-10-16T17:11:03;9.10;;;1.92;;
3941;SDS011;1985;48.592;8.850;2022-10-16T17:13:30;9.60;;;1.90;;
3941;SDS011;1985;48.592;8.850;2022-10-16T17:16:02;11.65;;;2.20;;
3941;SDS011;1985;48.592;8.850;2022-10-16T17:18:30;10.70;;;3.20;;
3941;SDS011;1985;48.592;8.850;2022-10-16T17:21:00;11.88;;;3.15;;
3941;SDS011;1985;48.592;8.850;2022-10-16T17:23:27;11.80;;;3.13;;
3941;SDS011;1985;48.592;8.850;2022-10-16T17:25:53;13.20;;;3.25;;
3941;SDS011;1985;48.592;8.850;2022-10-16T17:28:18;11.63;;;2.88;;
3941;SDS011;1985;48.592;8.850;2022-10-16T17:30:44;10.70;;;2.70;;
3941;SDS011;1985;48.592;8.850;2022-10-16T17:33:10;10.80;;;2.20;;
3941;SDS011;1985;48.592;8.850;2022-10-16T17:35:44;8.95;;;2.00;;
3941;SDS011;1985;48.592;8.850;2022-10-16T17:38:11;10.52;;;2.00;;
3941;SDS011;1985;48.592;8.850;2022-10-16T17:40:38;10.02;;;2.13;;
3941;SDS011;1985;48.592;8.850;2022-10-16T17:43:04;11.40;;;1.80;;
3941;SDS011;1985;48.592;8.850;2022-10-16T17:45:30;9.43;;;2.10;;
3941;SDS011;1985;48.592;8.850;2022-10-16T17:47:59;10.93;;;2.83;;
3941;SDS011;1985;48.592;8.850;2022-10-16T17:50:25;9.70;;;2.20;;
3941;SDS011;1985;48.592;8.850;2022-10-16T17:52:50;10.70;;;2.60;;
3941;SDS011;1985;48.592;8.850;2022-10-16T17:55:16;11.57;;;2.30;;
3941;SDS011;1985;48.592;8.850;2022-10-16T17:57:42;9.90;;;2.70;;
3941;SDS011;1985;48.592;8.850;2022-10-16T18:00:08;12.00;;;2.17;;
3941;SDS011;1985;48.592;8.850;2022-10-16T18:02:34;11.60;;;2.63;;
3941;SDS011;1985;48.592;8.850;2022-10-16T18:05:00;10.50;;;2.43;;
3941;SDS011;1985;48.592;8.850;2022-10-16T18:07:26;13.18;;;3.30;;